sensor_id;sensor_type;location;lat;lon;timestamp;P1;durP1;ratioP1;P2;durP2;ratioP2
3036;SDS011;1528;52.550;13.408;2022-11-20T00:00:53;24.60;;;22.70;;
3036;SDS011;1528;52.550;13.408;2022-11-20T00:03:38;22.93;;;21.23;;
3036;SDS011;1528;52.550;13.408;2022-11-20T00:06:25;22.77;;;20.83;;
3036;SDS011;1528;52.550;13.408;2022-11-20T00:09:11;24.07;;;21.90;;
3036;SDS011;1528;52.550;13.408;2022-11-20T00:11:56;26.63;;;24.40;;
3036;SDS011;1528;52.550;13.408;2022-11-20T00:14:44;25.00;;;22.90;;
3036;SDS011;1528;52.550;13.408;2022-11-20T00:17:29;21.07;;;19.43;;
3036;SDS011;1528;52.550;13.408;2022-11-20T00:20:15;23.47;;;21.77;;
3036;SDS011;1528;52.550;13.408;2022-11-20T00:23:01;23.27;;;21.47;;
3036;SDS011;1528;52.550;13.408;2022-11-20T00:25:46;23.83;;;21.70;;
3036;SDS011;1528;52.550;13.408;2022-11-20T00:28:32;24.00;;;22.20;;
3036;SDS011;1528;52.550;13.408;2022-11-20T00:31:19;26.33;;;24.07;;
3036;SDS011;1528;52.550;13.408;2022-11-20T00:34:05;26.47;;;24.57;;
3036;SDS011;1528;52.550;13.408;2022-11-20T00:36:51;27.27;;;25.00;;
3036;SDS011;1528;52.550;13.408;2022-11-20T00:39:36;24.13;;;22.17;;
3036;SDS011;1528;52.550;13.408;2022-11-20T00:42:22;24.80;;;22.77;;
3036;SDS011;1528;52.550;13.408;2022-11-20T00:45:08;25.00;;;23.00;;
3036;SDS011;1528;52.550;13.408;2022-11-20T00:47:55;23.73;;;21.77;;
3036;SDS011;1528;52.550;13.408;2022-11-20T00:50:40;24.23;;;22.43;;
3036;SDS011;1528;52.550;13.408;2022-11-20T00:53:26;23.73;;;21.73;;
3036;SDS011;1528;52.550;13.408;2022-11-20T00:56:13;25.80;;;23.90;;
3036;SDS011;1528;52.550;13.408;2022-11-20T00:59:00;25.43;;;23.53;;
3036;SDS011;1528;52.550;13.408;2022-11-20T01:01:45;23.80;;;21.40;;
3036;SDS011;1528;52.550;13.408;2022-11-20T01:04:32;22.70;;;20.87;;
3036;SDS011;1528;52.550;13.408;2022-11-20T01:07:18;24.30;;;22.40;;
3036;SDS011;1528;52.550;13.408;2022-11-20T01:10:04;23.80;;;21.93;;
3036;SDS011;1528;52.550;13.408;2022-11-20T01:12:50;23.03;;;21.23;;
3036;SDS011;1528;52.550;13.408;2022-11-20T01:16:01;22.77;;;20.97;;
3036;SDS011;1528;52.550;13.408;2022-11-20T01:18:47;21.83;;;20.20;;
3036;SDS011;1528;52.550;13.408;2022-11-20T01:21:36;21.60;;;19.90;;
3036;SDS011;1528;52.550;13.408;2022-11-20T01:24:23;25.40;;;23.23;;
3036;SDS011;1528;52.550;13.408;2022-11-20T01:27:09;23.10;;;21.27;;
3036;SDS011;1528;52.550;13.408;2022-11-20T01:29:54;23.03;;;21.03;;
3036;SDS011;1528;52.550;13.408;2022-11-20T01:32:40;24.90;;;22.87;;
3036;SDS011;1528;52.550;13.408;2022-11-20T01:35:26;23.93;;;22.13;;
3036;SDS011;1528;52.550;13.408;2022-11-20T01:38:13;24.77;;;22.73;;
3036;SDS011;1528;52.550;13.408;2022-11-20T01:41:00;25.30;;;23.20;;
3036;SDS011;1528;52.550;13.408;2022-11-20T01:43:46;25.20;;;22.83;;
3036;SDS011;1528;52.550;13.408;2022-11-20T01:46:30;22.80;;;20.90;;
3036;SDS011;1528;52.550;13.408;2022-11-20T01:49:19;24.50;;;22.30;;
3036;SDS011;1528;52.550;13.408;2022-11-20T01:52:10;22.60;;;20.80;;
3036;SDS011;1528;52.550;13.408;2022-11-20T01:55:05;25.30;;;23.50;;
3036;SDS011;1528;52.550;13.408;2022-11-20T01:57:53;23.53;;;21.53;;
3036;SDS011;1528;52.550;13.408;2022-11-20T02:00:40;24.50;;;22.47;;
3036;SDS011;1528;52.550;13.408;2022-11-20T02:03:25;24.60;;;22.50;;
3036;SDS011;1528;52.550;13.408;2022-11-20T02:06:12;21.97;;;20.07;;
3036;SDS011;1528;52.550;13.408;2022-11-20T02:09:04;21.63;;;19.70;;
3036;SDS011;1528;52.550;13.408;2022-11-20T02:11:51;21.87;;;20.07;;
3036;SDS011;1528;52.550;13.408;2022-11-20T02:14:37;22.10;;;20.50;;
3036;SDS011;1528;52.550;13.408;2022-11-20T02:17:24;25.10;;;23.10;;
3036;SDS011;1528;52.550;13.408;2022-11-20T02:20:58;24.27;;;22.30;;
3036;SDS011;1528;52.550;13.408;2022-11-20T02:24:11;19.93;;;18.20;;
3036;SDS011;1528;52.550;13.408;2022-11-20T02:27:01;23.27;;;20.83;;
3036;SDS011;1528;52.550;13.408;2022-11-20T02:29:50;22.60;;;20.83;;
3036;SDS011;1528;52.550;13.408;2022-11-20T02:32:38;22.03;;;20.33;;
3036;SDS011;1528;52.550;13.408;2022-11-20T02:35:43;22.27;;;20.67;;
3036;SDS011;1528;52.550;13.408;2022-11-20T02:38:29;22.73;;;20.87;;
3036;SDS011;1528;52.550;13.408;2022-11-20T02:41:17;23.03;;;21.30;;
3036;SDS011;1528;52.550;13.408;2022-11-20T02:44:03;23.33;;;21.70;;
3036;SDS011;1528;52.550;13.408;2022-11-20T02:46:49;23.30;;;21.40;;
3036;SDS011;1528;52.550;13.408;2022-11-20T02:49:35;22.17;;;20.20;;
3036;SDS011;1528;52.550;13.408;2022-11-20T02:52:20;22.77;;;21.17;;
3036;SDS011;1528;52.550;13.408;2022-11-20T02:55:06;23.93;;;22.23;;
3036;SDS011;1528;52.550;13.408;2022-11-20T02:57:53;21.63;;;20.03;;
3036;SDS011;1528;52.550;13.408;2022-11-20T03:00:39;21.60;;;19.97;;
3036;SDS011;1528;52.550;13.408;2022-11-20T03:03:25;21.30;;;19.57;;
3036;SDS011;1528;52.550;13.408;2022-11-20T03:06:10;22.13;;;20.40;;
3036;SDS011;1528;52.550;13.408;2022-11-20T03:08:56;22.73;;;20.70;;
3036;SDS011;1528;52.550;13.408;2022-11-20T03:11:41;23.07;;;21.17;;
3036;SDS011;1528;52.550;13.408;2022-11-20T03:14:28;21.57;;;20.03;;
3036;SDS011;1528;52.550;13.408;2022-11-20T03:17:15;26.17;;;24.20;;
3036;SDS011;1528;52.550;13.408;2022-11-20T03:20:02;27.23;;;25.03;;
3036;SDS011;1528;52.550;13.408;2022-11-20T03:22:49;22.60;;;20.77;;
3036;SDS011;1528;52.550;13.408;2022-11-20T03:25:35;24.47;;;22.53;;
3036;SDS011;1528;52.550;13.408;2022-11-20T03:28:20;24.30;;;22.10;;
3036;SDS011;1528;52.550;13.408;2022-11-20T03:31:09;27.10;;;25.00;;
3036;SDS011;1528;52.550;13.408;2022-11-20T03:33:55;28.83;;;26.30;;
3036;SDS011;1528;52.550;13.408;2022-11-20T03:36:41;28.57;;;25.77;;
3036;SDS011;1528;52.550;13.408;2022-11-20T03:39:27;27.30;;;25.03;;
3036;SDS011;1528;52.550;13.408;2022-11-20T03:42:13;27.00;;;24.77;;
3036;SDS011;1528;52.550;13.408;2022-11-20T03:45:12;26.27;;;24.20;;
3036;SDS011;1528;52.550;13.408;2022-11-20T03:48:00;29.03;;;26.70;;
3036;SDS011;1528;52.550;13.408;2022-11-20T03:50:45;29.50;;;27.07;;
3036;SDS011;1528;52.550;13.408;2022-11-20T03:53:32;29.30;;;26.87;;
3036;SDS011;1528;52.550;13.408;2022-11-20T03:56:18;29.60;;;27.10;;
3036;SDS011;1528;52.550;13.408;2022-11-20T03:59:05;24.57;;;22.60;;
3036;SDS011;1528;52.550;13.408;2022-11-20T04:01:50;26.43;;;24.23;;
3036;SDS011;1528;52.550;13.408;2022-11-20T04:04:37;25.27;;;23.37;;
3036;SDS011;1528;52.550;13.408;2022-11-20T04:07:23;25.30;;;23.40;;
3036;SDS011;1528;52.550;13.408;2022-11-20T04:10:08;24.63;;;22.80;;
3036;SDS011;1528;52.550;13.408;2022-11-20T04:12:53;23.50;;;21.63;;
3036;SDS011;1528;52.550;13.408;2022-11-20T04:15:39;23.73;;;21.93;;
3036;SDS011;1528;52.550;13.408;2022-11-20T04:18:24;25.53;;;23.40;;
3036;SDS011;1528;52.550;13.408;2022-11-20T04:21:11;23.37;;;21.47;;
3036;SDS011;1528;52.550;13.408;2022-11-20T04:23:57;24.53;;;22.53;;
3036;SDS011;1528;52.550;13.408;2022-11-20T04:26:43;24.37;;;22.60;;
3036;SDS011;1528;52.550;13.408;2022-11-20T04:29:28;26.30;;;24.40;;
3036;SDS011;1528;52.550;13.408;2022-11-20T04:32:14;25.30;;;23.50;;
3036;SDS011;1528;52.550;13.408;2022-11-20T04:34:59;23.93;;;22.23;;
3036;SDS011;1528;52.550;13.408;2022-11-20T04:37:46;24.27;;;22.30;;
3036;SDS011;1528;52.550;13.408;2022-11-20T04:40:31;25.57;;;23.73;;
3036;SDS011;1528;52.550;13.408;2022-11-20T04:43:17;25.97;;;24.07;;
3036;SDS011;1528;52.550;13.408;2022-11-20T04:46:02;24.10;;;22.00;;
3036;SDS011;1528;52.550;13.408;2022-11-20T04:48:48;25.33;;;23.63;;
3036;SDS011;1528;52.550;13.408;2022-11-20T04:51:33;23.67;;;21.97;;
3036;SDS011;1528;52.550;13.408;2022-11-20T04:54:21;24.60;;;22.80;;
3036;SDS011;1528;52.550;13.408;2022-11-20T04:57:06;27.30;;;24.90;;
3036;SDS011;1528;52.550;13.408;2022-11-20T04:59:51;23.70;;;22.07;;
3036;SDS011;1528;52.550;13.408;2022-11-20T05:02:37;24.20;;;22.30;;
3036;SDS011;1528;52.550;13.408;2022-11-20T05:05:23;25.70;;;23.83;;
3036;SDS011;1528;52.550;13.408;2022-11-20T05:08:08;26.10;;;24.17;;
3036;SDS011;1528;52.550;13.408;2022-11-20T05:10:58;24.53;;;22.90;;
3036;SDS011;1528;52.550;13.408;2022-11-20T05:13:44;25.47;;;23.30;;
3036;SDS011;1528;52.550;13.408;2022-11-20T05:16:30;23.40;;;21.53;;
3036;SDS011;1528;52.550;13.408;2022-11-20T05:19:15;23.63;;;21.90;;
3036;SDS011;1528;52.550;13.408;2022-11-20T05:22:01;23.57;;;21.73;;
3036;SDS011;1528;52.550;13.408;2022-11-20T05:24:46;24.27;;;22.43;;
3036;SDS011;1528;52.550;13.408;2022-11-20T05:27:33;23.13;;;21.43;;
3036;SDS011;1528;52.550;13.408;2022-11-20T05:30:19;22.80;;;21.10;;
3036;SDS011;1528;52.550;13.408;2022-11-20T05:33:04;21.80;;;20.20;;
3036;SDS011;1528;52.550;13.408;2022-11-20T05:35:50;25.73;;;23.63;;
3036;SDS011;1528;52.550;13.408;2022-11-20T05:38:35;24.47;;;22.47;;
3036;SDS011;1528;52.550;13.408;2022-11-20T05:41:21;27.00;;;24.80;;
3036;SDS011;1528;52.550;13.408;2022-11-20T05:44:09;26.60;;;24.23;;
3036;SDS011;1528;52.550;13.408;2022-11-20T05:46:55;23.53;;;21.60;;
3036;SDS011;1528;52.550;13.408;2022-11-20T05:49:40;24.13;;;22.17;;
3036;SDS011;1528;52.550;13.408;2022-11-20T05:52:27;22.43;;;20.53;;
3036;SDS011;1528;52.550;13.408;2022-11-20T05:55:13;24.03;;;22.13;;
3036;SDS011;1528;52.550;13.408;2022-11-20T05:57:59;23.53;;;21.63;;
3036;SDS011;1528;52.550;13.408;2022-11-20T06:00:46;23.80;;;21.90;;
3036;SDS011;1528;52.550;13.408;2022-11-20T06:03:31;24.17;;;22.23;;
3036;SDS011;1528;52.550;13.408;2022-11-20T06:06:18;25.50;;;23.63;;
3036;SDS011;1528;52.550;13.408;2022-11-20T06:09:04;23.30;;;21.60;;
3036;SDS011;1528;52.550;13.408;2022-11-20T06:11:49;23.73;;;22.13;;
3036;SDS011;1528;52.550;13.408;2022-11-20T06:14:35;24.80;;;22.60;;
3036;SDS011;1528;52.550;13.408;2022-11-20T06:17:22;23.00;;;20.80;;
3036;SDS011;1528;52.550;13.408;2022-11-20T06:20:08;22.80;;;21.20;;
3036;SDS011;1528;52.550;13.408;2022-11-20T06:22:54;21.60;;;20.10;;
3036;SDS011;1528;52.550;13.408;2022-11-20T06:25:40;22.33;;;20.63;;
3036;SDS011;1528;52.550;13.408;2022-11-20T06:28:26;23.40;;;21.70;;
3036;SDS011;1528;52.550;13.408;2022-11-20T06:31:13;23.80;;;21.93;;
3036;SDS011;1528;52.550;13.408;2022-11-20T06:34:01;24.20;;;22.40;;
3036;SDS011;1528;52.550;13.408;2022-11-20T06:36:47;22.67;;;20.90;;
3036;SDS011;1528;52.550;13.408;2022-11-20T06:39:32;22.40;;;20.80;;
3036;SDS011;1528;52.550;13.408;2022-11-20T06:42:17;24.23;;;22.23;;
3036;SDS011;1528;52.550;13.408;2022-11-20T06:45:03;23.57;;;21.83;;
3036;SDS011;1528;52.550;13.408;2022-11-20T06:47:49;23.63;;;21.93;;
3036;SDS011;1528;52.550;13.408;2022-11-20T06:50:37;22.73;;;21.33;;
3036;SDS011;1528;52.550;13.408;2022-11-20T06:53:22;24.23;;;22.43;;
3036;SDS011;1528;52.550;13.408;2022-11-20T06:56:08;23.00;;;21.50;;
3036;SDS011;1528;52.550;13.408;2022-11-20T06:58:54;22.30;;;20.70;;
3036;SDS011;1528;52.550;13.408;2022-11-20T07:01:39;26.37;;;24.47;;
3036;SDS011;1528;52.550;13.408;2022-11-20T07:04:24;24.90;;;23.40;;
3036;SDS011;1528;52.550;13.408;2022-11-20T07:07:11;24.43;;;22.57;;
3036;SDS011;1528;52.550;13.408;2022-11-20T07:09:57;25.43;;;23.30;;
3036;SDS011;1528;52.550;13.408;2022-11-20T07:12:48;25.10;;;23.30;;
3036;SDS011;1528;52.550;13.408;2022-11-20T07:15:34;23.10;;;21.23;;
3036;SDS011;1528;52.550;13.408;2022-11-20T07:18:19;24.03;;;22.43;;
3036;SDS011;1528;52.550;13.408;2022-11-20T07:21:06;23.40;;;21.90;;
3036;SDS011;1528;52.550;13.408;2022-11-20T07:23:54;23.90;;;22.30;;
3036;SDS011;1528;52.550;13.408;2022-11-20T07:26:40;23.53;;;21.83;;
3036;SDS011;1528;52.550;13.408;2022-11-20T07:29:26;24.00;;;22.33;;
3036;SDS011;1528;52.550;13.408;2022-11-20T07:32:11;21.50;;;20.10;;
3036;SDS011;1528;52.550;13.408;2022-11-20T07:34:57;24.70;;;23.00;;
3036;SDS011;1528;52.550;13.408;2022-11-20T07:37:42;24.53;;;22.80;;
3036;SDS011;1528;52.550;13.408;2022-11-20T07:40:30;24.93;;;23.03;;
3036;SDS011;1528;52.550;13.408;2022-11-20T07:43:15;24.80;;;22.90;;
3036;SDS011;1528;52.550;13.408;2022-11-20T07:46:01;25.30;;;23.30;;
3036;SDS011;1528;52.550;13.408;2022-11-20T07:48:47;24.73;;;22.93;;
3036;SDS011;1528;52.550;13.408;2022-11-20T07:51:32;25.57;;;23.50;;
3036;SDS011;1528;52.550;13.408;2022-11-20T07:54:18;24.70;;;22.90;;
3036;SDS011;1528;52.550;13.408;2022-11-20T07:57:05;26.77;;;24.70;;
3036;SDS011;1528;52.550;13.408;2022-11-20T07:59:50;24.47;;;22.60;;
3036;SDS011;1528;52.550;13.408;2022-11-20T08:02:36;23.83;;;22.13;;
3036;SDS011;1528;52.550;13.408;2022-11-20T08:05:23;27.13;;;24.83;;
3036;SDS011;1528;52.550;13.408;2022-11-20T08:08:08;26.27;;;24.10;;
3036;SDS011;1528;52.550;13.408;2022-11-20T08:10:54;26.40;;;23.80;;
3036;SDS011;1528;52.550;13.408;2022-11-20T08:14:03;25.10;;;23.20;;
3036;SDS011;1528;52.550;13.408;2022-11-20T08:16:56;23.33;;;21.53;;
3036;SDS011;1528;52.550;13.408;2022-11-20T08:19:42;25.70;;;23.70;;
3036;SDS011;1528;52.550;13.408;2022-11-20T08:22:28;24.87;;;23.13;;
3036;SDS011;1528;52.550;13.408;2022-11-20T08:25:13;25.27;;;23.27;;
3036;SDS011;1528;52.550;13.408;2022-11-20T08:27:59;25.00;;;23.10;;
3036;SDS011;1528;52.550;13.408;2022-11-20T08:30:47;25.17;;;23.27;;
3036;SDS011;1528;52.550;13.408;2022-11-20T08:33:33;25.40;;;23.40;;
3036;SDS011;1528;52.550;13.408;2022-11-20T08:36:19;25.43;;;23.43;;
3036;SDS011;1528;52.550;13.408;2022-11-20T08:39:05;25.97;;;23.97;;
3036;SDS011;1528;52.550;13.408;2022-11-20T08:41:50;24.57;;;22.77;;
3036;SDS011;1528;52.550;13.408;2022-11-20T08:44:36;25.70;;;23.77;;
3036;SDS011;1528;52.550;13.408;2022-11-20T08:47:23;25.10;;;23.20;;
3036;SDS011;1528;52.550;13.408;2022-11-20T08:50:09;25.53;;;23.53;;
3036;SDS011;1528;52.550;13.408;2022-11-20T08:52:55;24.73;;;22.77;;
3036;SDS011;1528;52.550;13.408;2022-11-20T08:55:47;24.33;;;22.40;;
3036;SDS011;1528;52.550;13.408;2022-11-20T08:58:32;26.10;;;24.10;;
3036;SDS011;1528;52.550;13.408;2022-11-20T09:01:18;26.43;;;24.23;;
3036;SDS011;1528;52.550;13.408;2022-11-20T09:04:06;26.23;;;24.17;;
3036;SDS011;1528;52.550;13.408;2022-11-20T09:06:51;22.47;;;20.67;;
3036;SDS011;1528;52.550;13.408;2022-11-20T09:09:37;25.90;;;23.90;;
3036;SDS011;1528;52.550;13.408;2022-11-20T09:12:23;24.20;;;22.40;;
3036;SDS011;1528;52.550;13.408;2022-11-20T09:15:09;24.07;;;22.17;;
3036;SDS011;1528;52.550;13.408;2022-11-20T09:17:56;26.77;;;24.67;;
3036;SDS011;1528;52.550;13.408;2022-11-20T09:20:44;24.80;;;22.70;;
3036;SDS011;1528;52.550;13.408;2022-11-20T09:23:31;25.97;;;23.90;;
3036;SDS011;1528;52.550;13.408;2022-11-20T09:26:17;25.83;;;23.80;;
3036;SDS011;1528;52.550;13.408;2022-11-20T09:29:02;29.17;;;26.80;;
3036;SDS011;1528;52.550;13.408;2022-11-20T09:31:48;25.73;;;23.90;;
3036;SDS011;1528;52.550;13.408;2022-11-20T09:34:34;27.33;;;24.97;;
3036;SDS011;1528;52.550;13.408;2022-11-20T09:37:21;29.33;;;27.03;;
3036;SDS011;1528;52.550;13.408;2022-11-20T09:40:06;26.90;;;25.00;;
3036;SDS011;1528;52.550;13.408;2022-11-20T09:43:05;25.00;;;23.10;;
3036;SDS011;1528;52.550;13.408;2022-11-20T09:45:59;26.20;;;24.37;;
3036;SDS011;1528;52.550;13.408;2022-11-20T09:50:23;26.80;;;24.70;;
3036;SDS011;1528;52.550;13.408;2022-11-20T09:53:13;26.10;;;24.10;;
3036;SDS011;1528;52.550;13.408;2022-11-20T09:56:06;24.60;;;22.37;;
3036;SDS011;1528;52.550;13.408;2022-11-20T09:58:57;27.10;;;25.00;;
3036;SDS011;1528;52.550;13.408;2022-11-20T10:04:20;29.93;;;27.57;;
3036;SDS011;1528;52.550;13.408;2022-11-20T10:07:07;28.83;;;26.57;;
3036;SDS011;1528;52.550;13.408;2022-11-20T10:09:52;29.40;;;27.00;;
3036;SDS011;1528;52.550;13.408;2022-11-20T10:12:43;27.20;;;25.10;;
3036;SDS011;1528;52.550;13.408;2022-11-20T10:15:42;27.50;;;25.60;;
3036;SDS011;1528;52.550;13.408;2022-11-20T10:18:40;29.13;;;26.97;;
3036;SDS011;1528;52.550;13.408;2022-11-20T10:21:40;28.70;;;26.53;;
3036;SDS011;1528;52.550;13.408;2022-11-20T10:24:41;32.23;;;29.63;;
3036;SDS011;1528;52.550;13.408;2022-11-20T10:27:37;26.60;;;24.50;;
3036;SDS011;1528;52.550;13.408;2022-11-20T10:30:41;26.47;;;24.57;;
3036;SDS011;1528;52.550;13.408;2022-11-20T10:33:29;28.23;;;25.97;;
3036;SDS011;1528;52.550;13.408;2022-11-20T10:36:22;26.33;;;24.23;;
3036;SDS011;1528;52.550;13.408;2022-11-20T10:39:14;28.03;;;25.90;;
3036;SDS011;1528;52.550;13.408;2022-11-20T10:42:03;29.90;;;27.60;;
3036;SDS011;1528;52.550;13.408;2022-11-20T10:44:58;28.17;;;26.10;;
3036;SDS011;1528;52.550;13.408;2022-11-20T10:47:54;25.73;;;23.93;;
3036;SDS011;1528;52.550;13.408;2022-11-20T10:50:53;28.20;;;26.10;;
3036;SDS011;1528;52.550;13.408;2022-11-20T10:53:45;24.97;;;23.20;;
3036;SDS011;1528;52.550;13.408;2022-11-20T10:56:39;24.50;;;22.43;;
3036;SDS011;1528;52.550;13.408;2022-11-20T10:59:35;24.27;;;22.57;;
3036;SDS011;1528;52.550;13.408;2022-11-20T11:02:38;27.77;;;25.60;;
3036;SDS011;1528;52.550;13.408;2022-11-20T11:05:29;24.80;;;22.90;;
3036;SDS011;1528;52.550;13.408;2022-11-20T11:08:20;26.90;;;25.10;;
3036;SDS011;1528;52.550;13.408;2022-11-20T11:11:12;24.30;;;22.60;;
3036;SDS011;1528;52.550;13.408;2022-11-20T11:14:08;24.67;;;22.93;;
3036;SDS011;1528;52.550;13.408;2022-11-20T11:16:56;24.17;;;22.40;;
3036;SDS011;1528;52.550;13.408;2022-11-20T11:19:44;24.27;;;22.37;;
3036;SDS011;1528;52.550;13.408;2022-11-20T11:22:30;24.77;;;22.97;;
3036;SDS011;1528;52.550;13.408;2022-11-20T11:25:21;25.50;;;23.80;;
3036;SDS011;1528;52.550;13.408;2022-11-20T11:28:19;26.53;;;24.53;;
3036;SDS011;1528;52.550;13.408;2022-11-20T11:31:05;25.50;;;23.70;;
3036;SDS011;1528;52.550;13.408;2022-11-20T11:33:51;22.17;;;20.57;;
3036;SDS011;1528;52.550;13.408;2022-11-20T11:36:38;23.93;;;22.13;;
3036;SDS011;1528;52.550;13.408;2022-11-20T11:39:23;22.70;;;21.10;;
3036;SDS011;1528;52.550;13.408;2022-11-20T11:42:12;24.10;;;22.60;;
3036;SDS011;1528;52.550;13.408;2022-11-20T11:45:01;26.50;;;24.53;;
3036;SDS011;1528;52.550;13.408;2022-11-20T11:47:49;23.33;;;21.80;;
3036;SDS011;1528;52.550;13.408;2022-11-20T11:50:37;23.60;;;21.97;;
3036;SDS011;1528;52.550;13.408;2022-11-20T11:53:34;26.00;;;24.20;;
3036;SDS011;1528;52.550;13.408;2022-11-20T11:56:26;24.77;;;22.87;;
3036;SDS011;1528;52.550;13.408;2022-11-20T11:59:12;25.00;;;23.23;;
3036;SDS011;1528;52.550;13.408;2022-11-20T12:02:11;25.80;;;23.83;;
3036;SDS011;1528;52.550;13.408;2022-11-20T12:05:11;23.30;;;21.53;;
3036;SDS011;1528;52.550;13.408;2022-11-20T12:08:03;23.67;;;21.33;;
3036;SDS011;1528;52.550;13.408;2022-11-20T12:10:59;23.33;;;21.43;;
3036;SDS011;1528;52.550;13.408;2022-11-20T12:13:50;25.03;;;22.90;;
3036;SDS011;1528;52.550;13.408;2022-11-20T12:16:40;21.43;;;19.90;;
3036;SDS011;1528;52.550;13.408;2022-11-20T12:19:26;22.30;;;20.53;;
3036;SDS011;1528;52.550;13.408;2022-11-20T12:22:19;22.40;;;20.60;;
3036;SDS011;1528;52.550;13.408;2022-11-20T12:25:14;22.07;;;20.37;;
3036;SDS011;1528;52.550;13.408;2022-11-20T12:28:08;20.73;;;19.07;;
3036;SDS011;1528;52.550;13.408;2022-11-20T12:31:14;20.97;;;19.37;;
3036;SDS011;1528;52.550;13.408;2022-11-20T12:34:24;22.80;;;20.97;;
3036;SDS011;1528;52.550;13.408;2022-11-20T12:37:24;21.43;;;19.73;;
3036;SDS011;1528;52.550;13.408;2022-11-20T12:40:24;20.73;;;19.23;;
3036;SDS011;1528;52.550;13.408;2022-11-20T12:43:18;24.33;;;22.43;;
3036;SDS011;1528;52.550;13.408;2022-11-20T12:46:26;23.80;;;21.90;;
3036;SDS011;1528;52.550;13.408;2022-11-20T12:49:25;20.00;;;18.50;;
3036;SDS011;1528;52.550;13.408;2022-11-20T12:52:29;19.43;;;18.20;;
3036;SDS011;1528;52.550;13.408;2022-11-20T12:55:25;18.83;;;17.63;;
3036;SDS011;1528;52.550;13.408;2022-11-20T12:58:20;21.10;;;19.40;;
3036;SDS011;1528;52.550;13.408;2022-11-20T13:01:17;19.57;;;18.27;;
3036;SDS011;1528;52.550;13.408;2022-11-20T13:07:48;20.23;;;18.83;;
3036;SDS011;1528;52.550;13.408;2022-11-20T13:10:38;19.30;;;18.00;;
3036;SDS011;1528;52.550;13.408;2022-11-20T13:13:35;21.10;;;19.70;;
3036;SDS011;1528;52.550;13.408;2022-11-20T13:16:30;20.07;;;18.30;;
3036;SDS011;1528;52.550;13.408;2022-11-20T13:19:21;18.87;;;17.60;;
3036;SDS011;1528;52.550;13.408;2022-11-20T13:22:07;20.93;;;19.60;;
3036;SDS011;1528;52.550;13.408;2022-11-20T13:24:53;19.33;;;18.00;;
3036;SDS011;1528;52.550;13.408;2022-11-20T13:27:46;19.43;;;17.97;;
3036;SDS011;1528;52.550;13.408;2022-11-20T13:30:33;20.73;;;19.33;;
3036;SDS011;1528;52.550;13.408;2022-11-20T13:33:22;20.90;;;19.63;;
3036;SDS011;1528;52.550;13.408;2022-11-20T13:36:20;19.13;;;17.63;;
3036;SDS011;1528;52.550;13.408;2022-11-20T13:39:08;19.90;;;18.60;;
3036;SDS011;1528;52.550;13.408;2022-11-20T13:41:54;22.80;;;21.20;;
3036;SDS011;1528;52.550;13.408;2022-11-20T13:44:42;23.27;;;21.70;;
3036;SDS011;1528;52.550;13.408;2022-11-20T13:47:31;25.33;;;23.43;;
3036;SDS011;1528;52.550;13.408;2022-11-20T13:50:16;24.20;;;22.40;;
3036;SDS011;1528;52.550;13.408;2022-11-20T13:53:04;24.70;;;23.17;;
3036;SDS011;1528;52.550;13.408;2022-11-20T13:56:04;23.80;;;22.10;;
3036;SDS011;1528;52.550;13.408;2022-11-20T13:58:59;22.30;;;20.70;;
3036;SDS011;1528;52.550;13.408;2022-11-20T14:01:52;21.53;;;19.93;;
3036;SDS011;1528;52.550;13.408;2022-11-20T14:04:41;21.40;;;19.80;;
3036;SDS011;1528;52.550;13.408;2022-11-20T14:07:31;19.83;;;18.53;;
3036;SDS011;1528;52.550;13.408;2022-11-20T14:10:21;22.17;;;20.77;;
3036;SDS011;1528;52.550;13.408;2022-11-20T14:13:15;21.47;;;20.07;;
3036;SDS011;1528;52.550;13.408;2022-11-20T14:16:02;17.90;;;16.50;;
3036;SDS011;1528;52.550;13.408;2022-11-20T14:18:48;19.07;;;17.77;;
3036;SDS011;1528;52.550;13.408;2022-11-20T14:21:35;20.17;;;18.77;;
3036;SDS011;1528;52.550;13.408;2022-11-20T14:24:21;20.43;;;19.13;;
3036;SDS011;1528;52.550;13.408;2022-11-20T14:27:11;19.87;;;18.57;;
3036;SDS011;1528;52.550;13.408;2022-11-20T14:30:00;21.60;;;20.10;;
3036;SDS011;1528;52.550;13.408;2022-11-20T14:32:46;21.67;;;20.13;;
3036;SDS011;1528;52.550;13.408;2022-11-20T14:35:34;21.90;;;20.23;;
3036;SDS011;1528;52.550;13.408;2022-11-20T14:38:23;22.10;;;20.13;;
3036;SDS011;1528;52.550;13.408;2022-11-20T14:41:16;21.20;;;19.80;;
3036;SDS011;1528;52.550;13.408;2022-11-20T14:44:03;21.53;;;20.13;;
3036;SDS011;1528;52.550;13.408;2022-11-20T14:46:50;19.93;;;18.60;;
3036;SDS011;1528;52.550;13.408;2022-11-20T14:49:37;20.63;;;18.87;;
3036;SDS011;1528;52.550;13.408;2022-11-20T14:52:24;18.70;;;17.40;;
3036;SDS011;1528;52.550;13.408;2022-11-20T14:55:14;21.90;;;20.50;;
3036;SDS011;1528;52.550;13.408;2022-11-20T14:58:20;24.10;;;22.03;;
3036;SDS011;1528;52.550;13.408;2022-11-20T15:01:07;22.40;;;20.43;;
3036;SDS011;1528;52.550;13.408;2022-11-20T15:03:59;23.10;;;21.37;;
3036;SDS011;1528;52.550;13.408;2022-11-20T15:06:49;20.30;;;18.80;;
3036;SDS011;1528;52.550;13.408;2022-11-20T15:09:35;23.47;;;21.87;;
3036;SDS011;1528;52.550;13.408;2022-11-20T15:12:23;21.83;;;20.33;;
3036;SDS011;1528;52.550;13.408;2022-11-20T15:15:09;21.43;;;19.83;;
3036;SDS011;1528;52.550;13.408;2022-11-20T15:17:59;23.00;;;21.50;;
3036;SDS011;1528;52.550;13.408;2022-11-20T15:20:45;23.77;;;21.90;;
3036;SDS011;1528;52.550;13.408;2022-11-20T15:23:31;23.63;;;22.03;;
3036;SDS011;1528;52.550;13.408;2022-11-20T15:26:23;24.77;;;22.87;;
3036;SDS011;1528;52.550;13.408;2022-11-20T15:29:12;24.63;;;23.03;;
3036;SDS011;1528;52.550;13.408;2022-11-20T15:32:02;21.50;;;20.10;;
3036;SDS011;1528;52.550;13.408;2022-11-20T15:34:48;22.00;;;20.37;;
3036;SDS011;1528;52.550;13.408;2022-11-20T15:37:33;23.57;;;22.07;;
3036;SDS011;1528;52.550;13.408;2022-11-20T15:40:19;24.17;;;22.57;;
3036;SDS011;1528;52.550;13.408;2022-11-20T15:43:05;22.73;;;21.10;;
3036;SDS011;1528;52.550;13.408;2022-11-20T15:45:53;22.30;;;20.67;;
3036;SDS011;1528;52.550;13.408;2022-11-20T15:48:41;23.27;;;21.77;;
3036;SDS011;1528;52.550;13.408;2022-11-20T15:51:29;20.47;;;19.00;;
3036;SDS011;1528;52.550;13.408;2022-11-20T15:54:16;22.53;;;20.77;;
3036;SDS011;1528;52.550;13.408;2022-11-20T15:57:03;22.83;;;20.90;;
3036;SDS011;1528;52.550;13.408;2022-11-20T15:59:49;22.83;;;21.23;;
3036;SDS011;1528;52.550;13.408;2022-11-20T16:02:36;24.50;;;22.60;;
3036;SDS011;1528;52.550;13.408;2022-11-20T16:05:22;21.60;;;20.20;;
3036;SDS011;1528;52.550;13.408;2022-11-20T16:08:08;20.93;;;19.53;;
3036;SDS011;1528;52.550;13.408;2022-11-20T16:10:54;19.47;;;18.07;;
3036;SDS011;1528;52.550;13.408;2022-11-20T16:13:40;20.97;;;19.47;;
3036;SDS011;1528;52.550;13.408;2022-11-20T16:17:25;18.90;;;17.50;;
3036;SDS011;1528;52.550;13.408;2022-11-20T16:20:34;19.50;;;18.00;;
3036;SDS011;1528;52.550;13.408;2022-11-20T16:23:28;21.17;;;19.53;;
3036;SDS011;1528;52.550;13.408;2022-11-20T16:26:17;19.60;;;18.33;;
3036;SDS011;1528;52.550;13.408;2022-11-20T16:29:22;20.80;;;19.20;;
3036;SDS011;1528;52.550;13.408;2022-11-20T16:32:45;22.67;;;21.30;;
3036;SDS011;1528;52.550;13.408;2022-11-20T16:35:31;21.03;;;19.43;;
3036;SDS011;1528;52.550;13.408;2022-11-20T16:38:19;23.63;;;21.83;;
3036;SDS011;1528;52.550;13.408;2022-11-20T16:41:05;20.97;;;19.30;;
3036;SDS011;1528;52.550;13.408;2022-11-20T16:43:57;20.43;;;18.93;;
3036;SDS011;1528;52.550;13.408;2022-11-20T16:46:44;19.13;;;17.83;;
3036;SDS011;1528;52.550;13.408;2022-11-20T16:49:31;20.17;;;18.63;;